Terminal Aerodrome Forecast
Issued by NWS

Home | Current Version | Previous Version | Text Only | Print | Product List | Glossary Off
Versions: 1 2 3 4 5 6 7 8 9 10 11 12 13 14 15 16 17 18

249
FTUS43 KABR 220540
TAFMBG
TAF
KMBG 220540Z 2206/2306 14017G27KT P6SM BKN040
     FM220800 15019KT P6SM OVC030
     FM221100 15020G28KT P6SM VCSH OVC015
     FM221600 16015KT P6SM BKN035=

USA.gov is the U.S. government's official web portal to all federal, state and local government web resources and services.